Francisco Araujo

Olheiro - Estoril Praia
3 Abr 2027
Sábado
Processo

Personalidade

Adaptabilidade (9) Ambição (11) Controvérsia (6) Lealdade (2) Pressão (10) Profissionalismo (16) Espírito Esportivo (14) Temperamento (9)

Perfil

Estilo de Treinamento Democrático
Licença Continental B
Determinação 8
Gestão de Pessoas 6
Motivação 12
Disciplina 7
Satisfação no Trabalho
100%
Fadiga
0%
Função Olheiro
Salário 83.5K p/s
Contrato 14.03.2029

Desempenho

Comportamento Bom
Eficácia do Treinamento
31%
Desenvolvimento do Jogador
25%
Prevenção de Lesões
60%
Implementação Tática
45%

Eventos Recentes

Participou de uma reunião de recrutamento agora
Participou de uma reunião de recrutamento agora
Avaliou um jogador agora
Avaliou um jogador agora
Avaliou um jogador 7d atrás
Avaliou um jogador 7d atrás
Observou uma partida 7d atrás
Avaliou um jogador 7d atrás

Monitorando agora

99
Jogador Clube Status Habilidade Confiança Observado Última observação Último voto
Vanja Dragojević Partizan Ativo 120 / 113 40% 3 01.04.2027 -
Arjan Malić Sturm Graz Ativo 127 / 122 40% 2 01.04.2027 -
Figueiredo Alverca Ativo 132 / 124 40% 1 01.04.2027 -
Manolo Portanova Reggiana Ativo 129 / 129 40% 1 01.04.2027 -
Patrik Wålemark Lech Ativo 119 / 130 40% 6 30.03.2027 -
Sayfallah Ltaief Cracovia Ativo 141 / 126 40% 4 30.03.2027 -
Emirhan Başyiğit Sivasspor Ativo 116 / 110 40% 1 30.03.2027 -
Augusto Bando Ascoli Ativo 100 / 115 40% 1 30.03.2027 -
Relebohile Mofokeng Orlando Pirates Ativo 141 / 118 40% 7 27.03.2027 -
Andrés Gómez Vasco da Gama Ativo 129 / 129 40% 1 27.03.2027 -
Martim Cunha Porto Ativo 85 / 107 40% 2 25.03.2027 -
Francisco Chissumba Braga Ativo 119 / 128 40% 1 25.03.2027 -
Jack Currie Oxford United Ativo 131 / 127 40% 3 24.03.2027 -
Rodrigo Ramos Moreirense Ativo 102 / 113 40% 1 24.03.2027 -
João Capucho Benfica Ativo 85 / 102 40% 1 23.03.2027 -
Halam Loboa Independiente Medellin Ativo 108 / 131 40% 1 23.03.2027 -
Ibrahim Cissoko Zwolle Ativo 123 / 119 40% 4 21.03.2027 -
Tony Strata Vitoria Guimaraes Ativo 127 / 117 40% 1 21.03.2027 -
Yira Sor Racing Genk Ativo 116 / 123 40% 3 20.03.2027 -
Luciano Juba Bahia Ativo 145 / 138 40% 1 20.03.2027 -
Peter Federico Gornik Zabrze Ativo 135 / 132 40% 3 18.03.2027 -
Haissem Hassan Bloemfontein Celtic Ativo 149 / 122 40% 4 16.03.2027 -
João Loiola Fluminense Ativo 95 / 113 40% 1 16.03.2027 -
Jakub Jendryka Ruch Ativo 97 / 89 40% 1 16.03.2027 -
Brandon Aguilera Rio Ave Ativo 105 / 127 40% 1 15.03.2027 -
Armstrong Oko-Flex Levski Ativo 105 / 109 40% 1 15.03.2027 -
Juan Bezerra Zamalek Ativo 133 / 126 40% 3 14.03.2027 Observar
Dedé São Paulo Ativo 80 / 98 40% 1 12.03.2027 -
John Yeboah Venezia Ativo 114 / 115 40% 1 10.03.2027 -
Juho Lähteenmäki FC Nordsjaelland Ativo 131 / 127 40% 2 09.03.2027 -
Luca Barani Forli Ativo 86 / 91 40% 1 09.03.2027 -
Niklas Vesterlund Utrecht Ativo 104 / 112 40% 1 08.03.2027 -
Bitello Dinamo Moscow Ativo 135 / 136 40% 1 08.03.2027 -
Mateja Stjepanović Moreirense Ativo 119 / 131 40% 1 07.03.2027 -
Vinicius Tobias Shakhtar Ativo 149 / 124 40% 2 06.03.2027 -
Cristian Medina Botafogo Ativo 135 / 126 40% 1 05.03.2027 -
Leandro Martins Benfica Ativo 91 / 104 40% 1 02.03.2027 -
Sergi Domínguez Dinamo Zagreb Ativo 113 / 118 40% 1 02.03.2027 -
Miguel Reisinho Moreirense Ativo 107 / 126 40% 3 28.02.2027 -
Miguel Baeza Nacional Ativo 121 / 118 40% 1 28.02.2027 -
Helinho Toluca Ativo 130 / 134 40% 6 26.02.2027 -
Rubin Colwill Cardiff City Ativo 119 / 113 40% 1 25.02.2027 -
Myron van Brederode KV Mechelen Ativo 108 / 130 40% 1 22.02.2027 -
Matisse Samoise KAA Gent Ativo 121 / 124 40% 2 18.02.2027 -
Luís Guilherme Sporting CP Ativo 137 / 135 40% 4 16.02.2027 -
Olakunle Olusegun Rostov Ativo 107 / 130 40% 1 14.02.2027 -
Leandro Andrade Polissia Ativo 147 / 124 40% 2 13.02.2027 -
Keagan Hlatshwayo SuperSport United Ativo 126 / 128 40% 1 13.02.2027 -
Ilja Vakhania Krasnodar Ativo 108 / 129 40% 1 11.02.2027 -
Daniel Júnior Nacional Ativo 130 / 118 40% 1 07.02.2027 -
Weverson Gil Vicente Ativo 115 / 117 40% 1 06.02.2027 -
Luis Palma Lech Ativo 115 / 113 40% 2 05.02.2027 -
Romano Floriani Mussolini Modena Ativo 115 / 122 40% 1 05.02.2027 -
Naïs Djouahra Arouca Ativo 125 / 116 40% 2 04.02.2027 -
Diogo Spencer Alverca Ativo 109 / 113 40% 3 02.02.2027 -
Thomas Claes Zulte Waregem Ativo 112 / 126 40% 1 02.02.2027 -
Chris Lokesa Waasland-Beveren Ativo 112 / 127 40% 1 30.01.2027 -
Ali Soliman Masr El Makasa Rejeitado 129 / 135 40% 1 29.01.2027 Mais informações
Michal Kohút Banik Ostrava Ativo 134 / 121 40% 2 28.01.2027 -
Federico Valentini Forli Ativo 92 / 99 40% 1 28.01.2027 -
Xavier Biscayzacú Defensor Sporting Ativo 124 / 129 40% 1 27.01.2027 -
MT Santa Clara Ativo 111 / 120 40% 1 25.01.2027 -
Louback Atlético Mineiro Ativo 90 / 98 40% 1 22.01.2027 -
Matheus Menezes Sport Recife Ativo 86 / 89 40% 1 22.01.2027 -
Nacer Tielemans Mouscron Ativo 128 / 143 40% 1 22.01.2027 -
Borna Knezović Casarano Ativo 98 / 101 40% 1 20.01.2027 -
Thapelo Maseko FC Copenhagen Ativo 126 / 121 40% 2 19.01.2027 -
Manu Pozo Torreense Ativo 113 / 112 40% 3 16.01.2027 -
Zak Swanson Doncaster Rovers Ativo 117 / 114 40% 1 16.01.2027 -
Franco Díaz KV Oostende Ativo 121 / 120 40% 1 15.01.2027 -
Nabil Touaizi Alverca Ativo 104 / 119 40% 1 12.01.2027 -
Mohamed Ali Ben Romdhane Al Ahly Ativo 125 / 125 40% 1 11.01.2027 -
Taichi Fukui Arouca Ativo 128 / 127 40% 1 31.12.2026 -
Angelo Gattermayer Wolfsberger AC Ativo 123 / 127 40% 1 31.12.2026 -
Ronaldo Vásquez Sumgayit Ativo 117 / 118 40% 1 30.12.2026 -
Robert FC Copenhagen Ativo 136 / 129 40% 1 30.12.2026 -
Milan Vukotić Partizan Ativo 126 / 124 40% 1 29.12.2026 -
Marcus McGuane Huddersfield Town Ativo 109 / 114 40% 1 26.12.2026 -
Alejandro Piedrahita Deportivo Pereira Ativo 116 / 117 40% 1 25.12.2026 -
Gustavo Silva Vitoria Guimaraes Ativo 131 / 120 40% 1 23.12.2026 -
Oswin Appollis Orlando Pirates Ativo 116 / 114 40% 1 21.12.2026 -
Simo Maritimo Ativo 107 / 117 40% 1 21.12.2026 -
Itumeleng Tau Ajax Cape Town Ativo 105 / 111 40% 2 18.12.2026 -
Roni AVS Ativo 113 / 112 40% 1 17.12.2026 -
Lindon Emërllahu Polissia Ativo 100 / 128 40% 1 17.12.2026 -
Romelu Mignolet Mouscron Ativo 118 / 128 40% 1 13.12.2026 -
Kimito Nono Gamba Osaka Ativo 109 / 124 40% 1 08.12.2026 -
Felipe Peña Biafore Lanús Ativo 118 / 127 40% 1 17.11.2026 -
Joaquim Tigres Ativo 125 / 138 40% 3 10.11.2026 -
Liam Varela Veracruz Ativo 144 / 125 40% 1 10.11.2026 -
Pedro Vite Pumas UNAM Ativo 135 / 134 40% 1 07.11.2026 -
Sergio Quintero La Equidad Ativo 138 / 145 40% 1 03.11.2026 -
Franco Romero Toluca Ativo 114 / 125 40% 1 03.11.2026 -
Adrián Sánchez Belgrano Ativo 120 / 120 40% 1 08.10.2026 -
Nicolás Romero Minnesota United FC Ativo 140 / 137 40% 1 08.10.2026 -
Juan Mosquera Portland Timbers Ativo 125 / 121 40% 1 07.10.2026 -
Lasse Berg Johnsen Sporting Kansas City Ativo 117 / 132 40% 1 07.10.2026 -
Tomás Bottari Independiente Rivadavia Ativo 136 / 122 40% 1 05.10.2026 -
Ricardo Batista Casa Pia Ativo 95 / 112 44% 1 10.08.2026 -